sensor_id;sensor_type;location;lat;lon;timestamp;P1;durP1;ratioP1;P2;durP2;ratioP2
42906;SDS011;28552;51.146;6.576;2022-12-04T00:00:44;18.03;;;6.50;;
42906;SDS011;28552;51.146;6.576;2022-12-04T00:03:45;21.90;;;8.27;;
42906;SDS011;28552;51.146;6.576;2022-12-04T00:06:45;24.47;;;8.13;;
42906;SDS011;28552;51.146;6.576;2022-12-04T00:09:46;15.37;;;6.33;;
42906;SDS011;28552;51.146;6.576;2022-12-04T00:12:46;16.17;;;6.83;;
42906;SDS011;28552;51.146;6.576;2022-12-04T00:15:47;21.20;;;6.97;;
42906;SDS011;28552;51.146;6.576;2022-12-04T00:18:47;17.77;;;6.13;;
42906;SDS011;28552;51.146;6.576;2022-12-04T00:21:49;18.73;;;7.17;;
42906;SDS011;28552;51.146;6.576;2022-12-04T00:24:49;16.70;;;6.63;;
42906;SDS011;28552;51.146;6.576;2022-12-04T00:27:50;16.00;;;6.07;;
42906;SDS011;28552;51.146;6.576;2022-12-04T00:30:51;20.83;;;7.33;;
42906;SDS011;28552;51.146;6.576;2022-12-04T00:33:51;16.20;;;5.87;;
42906;SDS011;28552;51.146;6.576;2022-12-04T00:36:52;16.80;;;6.03;;
42906;SDS011;28552;51.146;6.576;2022-12-04T00:39:53;19.90;;;7.13;;
42906;SDS011;28552;51.146;6.576;2022-12-04T00:42:53;16.23;;;6.00;;
42906;SDS011;28552;51.146;6.576;2022-12-04T00:45:54;20.30;;;7.50;;
42906;SDS011;28552;51.146;6.576;2022-12-04T00:48:54;19.60;;;6.93;;
42906;SDS011;28552;51.146;6.576;2022-12-04T00:51:55;16.13;;;5.93;;
42906;SDS011;28552;51.146;6.576;2022-12-04T00:54:56;16.47;;;4.90;;
42906;SDS011;28552;51.146;6.576;2022-12-04T00:57:56;21.77;;;6.90;;
42906;SDS011;28552;51.146;6.576;2022-12-04T01:01:05;17.00;;;6.50;;
42906;SDS011;28552;51.146;6.576;2022-12-04T01:04:08;15.47;;;6.10;;
42906;SDS011;28552;51.146;6.576;2022-12-04T01:07:09;19.87;;;7.47;;
42906;SDS011;28552;51.146;6.576;2022-12-04T01:10:10;18.13;;;7.13;;
42906;SDS011;28552;51.146;6.576;2022-12-04T01:13:11;16.67;;;7.67;;
42906;SDS011;28552;51.146;6.576;2022-12-04T01:16:20;21.33;;;7.00;;
42906;SDS011;28552;51.146;6.576;2022-12-04T01:19:23;21.30;;;6.07;;
42906;SDS011;28552;51.146;6.576;2022-12-04T01:22:23;17.03;;;7.43;;
42906;SDS011;28552;51.146;6.576;2022-12-04T01:25:24;17.30;;;6.50;;
42906;SDS011;28552;51.146;6.576;2022-12-04T01:28:24;20.27;;;6.37;;
42906;SDS011;28552;51.146;6.576;2022-12-04T01:31:25;19.63;;;6.97;;
42906;SDS011;28552;51.146;6.576;2022-12-04T01:34:26;18.50;;;7.23;;
42906;SDS011;28552;51.146;6.576;2022-12-04T01:37:29;15.20;;;5.47;;
42906;SDS011;28552;51.146;6.576;2022-12-04T01:40:30;21.50;;;7.80;;
42906;SDS011;28552;51.146;6.576;2022-12-04T01:43:32;18.60;;;7.43;;
42906;SDS011;28552;51.146;6.576;2022-12-04T01:46:33;22.43;;;7.97;;
42906;SDS011;28552;51.146;6.576;2022-12-04T01:49:35;24.03;;;8.33;;
42906;SDS011;28552;51.146;6.576;2022-12-04T01:52:38;18.00;;;6.43;;
42906;SDS011;28552;51.146;6.576;2022-12-04T01:55:39;18.57;;;7.67;;
42906;SDS011;28552;51.146;6.576;2022-12-04T01:58:41;20.37;;;8.13;;
42906;SDS011;28552;51.146;6.576;2022-12-04T02:01:48;19.93;;;6.97;;
42906;SDS011;28552;51.146;6.576;2022-12-04T02:04:55;19.13;;;7.20;;
42906;SDS011;28552;51.146;6.576;2022-12-04T02:07:56;19.60;;;8.20;;
42906;SDS011;28552;51.146;6.576;2022-12-04T02:14:45;19.67;;;7.13;;
42906;SDS011;28552;51.146;6.576;2022-12-04T02:18:13;22.00;;;7.30;;
42906;SDS011;28552;51.146;6.576;2022-12-04T02:21:28;20.63;;;7.70;;
42906;SDS011;28552;51.146;6.576;2022-12-04T02:28:02;15.87;;;5.87;;
42906;SDS011;28552;51.146;6.576;2022-12-04T02:31:04;21.47;;;6.73;;
42906;SDS011;28552;51.146;6.576;2022-12-04T02:34:12;16.57;;;6.27;;
42906;SDS011;28552;51.146;6.576;2022-12-04T02:37:22;23.00;;;7.57;;
42906;SDS011;28552;51.146;6.576;2022-12-04T02:40:32;19.80;;;6.93;;
42906;SDS011;28552;51.146;6.576;2022-12-04T02:43:52;15.68;;;6.05;;
42906;SDS011;28552;51.146;6.576;2022-12-04T02:46:58;20.27;;;7.40;;
42906;SDS011;28552;51.146;6.576;2022-12-04T02:50:04;16.17;;;6.90;;
42906;SDS011;28552;51.146;6.576;2022-12-04T02:53:11;22.80;;;6.73;;
42906;SDS011;28552;51.146;6.576;2022-12-04T02:56:19;19.93;;;7.50;;
42906;SDS011;28552;51.146;6.576;2022-12-04T02:59:25;15.60;;;6.43;;
42906;SDS011;28552;51.146;6.576;2022-12-04T03:02:34;20.13;;;6.67;;
42906;SDS011;28552;51.146;6.576;2022-12-04T03:09:11;16.23;;;6.10;;
42906;SDS011;28552;51.146;6.576;2022-12-04T03:15:26;16.07;;;7.07;;
42906;SDS011;28552;51.146;6.576;2022-12-04T03:18:32;17.67;;;7.37;;
42906;SDS011;28552;51.146;6.576;2022-12-04T03:21:41;21.83;;;7.97;;
42906;SDS011;28552;51.146;6.576;2022-12-04T03:24:51;18.97;;;7.13;;
42906;SDS011;28552;51.146;6.576;2022-12-04T03:27:57;17.30;;;6.97;;
42906;SDS011;28552;51.146;6.576;2022-12-04T03:31:02;19.47;;;6.70;;
42906;SDS011;28552;51.146;6.576;2022-12-04T03:34:07;18.70;;;6.97;;
42906;SDS011;28552;51.146;6.576;2022-12-04T03:37:13;24.53;;;7.83;;
42906;SDS011;28552;51.146;6.576;2022-12-04T03:40:19;16.43;;;6.70;;
42906;SDS011;28552;51.146;6.576;2022-12-04T03:43:26;14.40;;;6.30;;
42906;SDS011;28552;51.146;6.576;2022-12-04T03:53:00;14.20;;;6.37;;
42906;SDS011;28552;51.146;6.576;2022-12-04T03:56:09;18.07;;;7.03;;
42906;SDS011;28552;51.146;6.576;2022-12-04T03:59:16;18.93;;;6.73;;
42906;SDS011;28552;51.146;6.576;2022-12-04T04:02:21;21.53;;;8.10;;
42906;SDS011;28552;51.146;6.576;2022-12-04T04:05:26;18.77;;;6.70;;
42906;SDS011;28552;51.146;6.576;2022-12-04T04:08:30;22.90;;;8.73;;
42906;SDS011;28552;51.146;6.576;2022-12-04T04:11:41;20.67;;;7.97;;
42906;SDS011;28552;51.146;6.576;2022-12-04T04:14:52;18.47;;;6.80;;
42906;SDS011;28552;51.146;6.576;2022-12-04T04:18:11;19.93;;;8.27;;
42906;SDS011;28552;51.146;6.576;2022-12-04T04:21:28;16.33;;;6.43;;
42906;SDS011;28552;51.146;6.576;2022-12-04T04:24:52;17.70;;;6.77;;
42906;SDS011;28552;51.146;6.576;2022-12-04T04:27:57;17.50;;;7.07;;
42906;SDS011;28552;51.146;6.576;2022-12-04T04:31:01;18.63;;;7.03;;
42906;SDS011;28552;51.146;6.576;2022-12-04T04:37:35;17.73;;;6.80;;
42906;SDS011;28552;51.146;6.576;2022-12-04T04:40:56;21.37;;;8.13;;
42906;SDS011;28552;51.146;6.576;2022-12-04T04:47:07;25.40;;;9.07;;
42906;SDS011;28552;51.146;6.576;2022-12-04T04:50:12;18.40;;;6.80;;
42906;SDS011;28552;51.146;6.576;2022-12-04T04:53:17;17.00;;;6.77;;
42906;SDS011;28552;51.146;6.576;2022-12-04T04:56:21;19.30;;;7.23;;
42906;SDS011;28552;51.146;6.576;2022-12-04T04:59:22;15.20;;;6.33;;
42906;SDS011;28552;51.146;6.576;2022-12-04T05:02:24;16.10;;;7.33;;
42906;SDS011;28552;51.146;6.576;2022-12-04T05:05:25;17.53;;;7.37;;
42906;SDS011;28552;51.146;6.576;2022-12-04T05:08:26;17.40;;;6.30;;
42906;SDS011;28552;51.146;6.576;2022-12-04T05:11:26;17.17;;;7.50;;
42906;SDS011;28552;51.146;6.576;2022-12-04T05:14:27;17.27;;;6.60;;
42906;SDS011;28552;51.146;6.576;2022-12-04T05:17:27;18.53;;;5.87;;
42906;SDS011;28552;51.146;6.576;2022-12-04T05:20:28;22.03;;;6.60;;
42906;SDS011;28552;51.146;6.576;2022-12-04T05:23:28;17.67;;;6.73;;
42906;SDS011;28552;51.146;6.576;2022-12-04T05:26:29;17.37;;;7.20;;
42906;SDS011;28552;51.146;6.576;2022-12-04T05:29:30;17.80;;;6.97;;
42906;SDS011;28552;51.146;6.576;2022-12-04T05:32:30;19.87;;;7.77;;
42906;SDS011;28552;51.146;6.576;2022-12-04T05:35:31;20.50;;;6.87;;
42906;SDS011;28552;51.146;6.576;2022-12-04T05:38:31;16.67;;;6.83;;
42906;SDS011;28552;51.146;6.576;2022-12-04T05:41:32;18.30;;;6.63;;
42906;SDS011;28552;51.146;6.576;2022-12-04T05:44:33;20.33;;;5.33;;
42906;SDS011;28552;51.146;6.576;2022-12-04T05:47:36;16.47;;;6.00;;
42906;SDS011;28552;51.146;6.576;2022-12-04T05:50:38;22.20;;;7.17;;
42906;SDS011;28552;51.146;6.576;2022-12-04T05:53:38;16.83;;;6.77;;
42906;SDS011;28552;51.146;6.576;2022-12-04T05:56:39;15.57;;;5.67;;
42906;SDS011;28552;51.146;6.576;2022-12-04T05:59:39;14.67;;;5.97;;
42906;SDS011;28552;51.146;6.576;2022-12-04T06:02:40;13.50;;;5.70;;
42906;SDS011;28552;51.146;6.576;2022-12-04T06:05:40;14.60;;;5.83;;
42906;SDS011;28552;51.146;6.576;2022-12-04T06:08:41;15.20;;;6.40;;
42906;SDS011;28552;51.146;6.576;2022-12-04T06:11:42;14.90;;;6.77;;
42906;SDS011;28552;51.146;6.576;2022-12-04T06:14:42;17.20;;;6.53;;
42906;SDS011;28552;51.146;6.576;2022-12-04T06:17:43;17.60;;;7.37;;
42906;SDS011;28552;51.146;6.576;2022-12-04T06:20:43;19.10;;;6.57;;
42906;SDS011;28552;51.146;6.576;2022-12-04T06:23:44;20.50;;;5.87;;
42906;SDS011;28552;51.146;6.576;2022-12-04T06:26:44;12.70;;;5.20;;
42906;SDS011;28552;51.146;6.576;2022-12-04T06:29:45;20.33;;;6.10;;
42906;SDS011;28552;51.146;6.576;2022-12-04T06:32:46;14.67;;;5.57;;
42906;SDS011;28552;51.146;6.576;2022-12-04T06:35:46;14.70;;;5.90;;
42906;SDS011;28552;51.146;6.576;2022-12-04T06:38:47;16.20;;;6.03;;
42906;SDS011;28552;51.146;6.576;2022-12-04T06:41:49;14.20;;;5.10;;
42906;SDS011;28552;51.146;6.576;2022-12-04T06:44:50;15.50;;;5.30;;
42906;SDS011;28552;51.146;6.576;2022-12-04T06:47:50;14.13;;;5.57;;
42906;SDS011;28552;51.146;6.576;2022-12-04T06:50:56;14.57;;;5.77;;
42906;SDS011;28552;51.146;6.576;2022-12-04T06:53:58;14.80;;;4.87;;
42906;SDS011;28552;51.146;6.576;2022-12-04T06:56:59;15.33;;;6.47;;
42906;SDS011;28552;51.146;6.576;2022-12-04T07:00:00;13.13;;;4.47;;
42906;SDS011;28552;51.146;6.576;2022-12-04T07:03:00;15.07;;;5.27;;
42906;SDS011;28552;51.146;6.576;2022-12-04T07:06:09;11.67;;;5.33;;
42906;SDS011;28552;51.146;6.576;2022-12-04T07:09:15;11.83;;;4.17;;
42906;SDS011;28552;51.146;6.576;2022-12-04T07:12:16;12.50;;;4.37;;
42906;SDS011;28552;51.146;6.576;2022-12-04T07:15:17;10.53;;;4.47;;
42906;SDS011;28552;51.146;6.576;2022-12-04T07:18:18;10.67;;;4.53;;
42906;SDS011;28552;51.146;6.576;2022-12-04T07:21:20;13.03;;;3.97;;
42906;SDS011;28552;51.146;6.576;2022-12-04T07:24:22;11.07;;;4.83;;
42906;SDS011;28552;51.146;6.576;2022-12-04T07:27:23;12.67;;;4.40;;
42906;SDS011;28552;51.146;6.576;2022-12-04T07:30:23;16.97;;;5.60;;
42906;SDS011;28552;51.146;6.576;2022-12-04T07:33:24;9.17;;;4.17;;
42906;SDS011;28552;51.146;6.576;2022-12-04T07:36:24;13.47;;;4.43;;
42906;SDS011;28552;51.146;6.576;2022-12-04T07:39:26;11.67;;;5.00;;
42906;SDS011;28552;51.146;6.576;2022-12-04T07:42:27;13.03;;;4.60;;
42906;SDS011;28552;51.146;6.576;2022-12-04T07:45:28;10.97;;;4.27;;
42906;SDS011;28552;51.146;6.576;2022-12-04T07:48:29;14.03;;;4.67;;
42906;SDS011;28552;51.146;6.576;2022-12-04T07:51:29;12.73;;;5.40;;
42906;SDS011;28552;51.146;6.576;2022-12-04T07:54:30;8.60;;;3.53;;
42906;SDS011;28552;51.146;6.576;2022-12-04T07:57:31;9.77;;;4.20;;
42906;SDS011;28552;51.146;6.576;2022-12-04T08:00:32;12.67;;;5.07;;
42906;SDS011;28552;51.146;6.576;2022-12-04T08:03:32;13.03;;;4.53;;
42906;SDS011;28552;51.146;6.576;2022-12-04T08:06:33;17.50;;;5.40;;
42906;SDS011;28552;51.146;6.576;2022-12-04T08:09:34;12.23;;;4.80;;
42906;SDS011;28552;51.146;6.576;2022-12-04T08:12:34;18.93;;;6.23;;
42906;SDS011;28552;51.146;6.576;2022-12-04T08:15:35;10.30;;;3.67;;
42906;SDS011;28552;51.146;6.576;2022-12-04T08:18:35;9.83;;;4.33;;
42906;SDS011;28552;51.146;6.576;2022-12-04T08:21:36;17.10;;;5.30;;
42906;SDS011;28552;51.146;6.576;2022-12-04T08:24:37;14.13;;;5.20;;
42906;SDS011;28552;51.146;6.576;2022-12-04T08:27:37;14.47;;;6.37;;
42906;SDS011;28552;51.146;6.576;2022-12-04T08:30:38;14.47;;;4.30;;
42906;SDS011;28552;51.146;6.576;2022-12-04T08:33:39;10.73;;;3.93;;
42906;SDS011;28552;51.146;6.576;2022-12-04T08:36:40;14.63;;;5.47;;
42906;SDS011;28552;51.146;6.576;2022-12-04T08:39:40;8.30;;;3.47;;
42906;SDS011;28552;51.146;6.576;2022-12-04T08:42:41;12.20;;;4.13;;
42906;SDS011;28552;51.146;6.576;2022-12-04T08:45:42;10.57;;;3.83;;
42906;SDS011;28552;51.146;6.576;2022-12-04T08:48:44;10.00;;;3.60;;
42906;SDS011;28552;51.146;6.576;2022-12-04T08:51:45;11.20;;;3.70;;
42906;SDS011;28552;51.146;6.576;2022-12-04T08:54:46;12.10;;;4.57;;
42906;SDS011;28552;51.146;6.576;2022-12-04T08:57:50;9.33;;;3.33;;
42906;SDS011;28552;51.146;6.576;2022-12-04T09:00:51;9.60;;;3.60;;
42906;SDS011;28552;51.146;6.576;2022-12-04T09:03:52;7.50;;;3.40;;
42906;SDS011;28552;51.146;6.576;2022-12-04T09:06:53;10.50;;;4.67;;
42906;SDS011;28552;51.146;6.576;2022-12-04T09:09:53;11.43;;;3.60;;
42906;SDS011;28552;51.146;6.576;2022-12-04T09:12:54;8.70;;;3.23;;
42906;SDS011;28552;51.146;6.576;2022-12-04T09:15:54;13.77;;;4.60;;
42906;SDS011;28552;51.146;6.576;2022-12-04T09:18:55;11.27;;;3.90;;
42906;SDS011;28552;51.146;6.576;2022-12-04T09:21:56;9.10;;;3.77;;
42906;SDS011;28552;51.146;6.576;2022-12-04T09:24:56;11.47;;;4.10;;
42906;SDS011;28552;51.146;6.576;2022-12-04T09:27:57;9.07;;;3.67;;
42906;SDS011;28552;51.146;6.576;2022-12-04T09:30:58;9.03;;;3.73;;
42906;SDS011;28552;51.146;6.576;2022-12-04T09:34:00;9.73;;;3.60;;
42906;SDS011;28552;51.146;6.576;2022-12-04T09:37:02;9.17;;;4.27;;
42906;SDS011;28552;51.146;6.576;2022-12-04T09:40:03;9.73;;;3.90;;
42906;SDS011;28552;51.146;6.576;2022-12-04T09:43:10;8.70;;;3.60;;
42906;SDS011;28552;51.146;6.576;2022-12-04T09:46:34;9.70;;;4.13;;
42906;SDS011;28552;51.146;6.576;2022-12-04T09:49:43;12.00;;;4.00;;
42906;SDS011;28552;51.146;6.576;2022-12-04T09:52:57;10.20;;;3.50;;
42906;SDS011;28552;51.146;6.576;2022-12-04T09:56:03;8.40;;;3.87;;
42906;SDS011;28552;51.146;6.576;2022-12-04T09:59:14;11.67;;;4.40;;
42906;SDS011;28552;51.146;6.576;2022-12-04T10:09:20;9.73;;;3.93;;
42906;SDS011;28552;51.146;6.576;2022-12-04T10:12:36;9.73;;;3.40;;
42906;SDS011;28552;51.146;6.576;2022-12-04T10:18:57;10.70;;;3.97;;
42906;SDS011;28552;51.146;6.576;2022-12-04T10:25:11;13.53;;;4.43;;
42906;SDS011;28552;51.146;6.576;2022-12-04T10:31:33;9.57;;;4.03;;
42906;SDS011;28552;51.146;6.576;2022-12-04T10:34:36;11.70;;;4.37;;
42906;SDS011;28552;51.146;6.576;2022-12-04T10:37:37;10.23;;;3.03;;
42906;SDS011;28552;51.146;6.576;2022-12-04T10:40:45;9.67;;;4.30;;
42906;SDS011;28552;51.146;6.576;2022-12-04T10:43:50;8.90;;;3.67;;
42906;SDS011;28552;51.146;6.576;2022-12-04T10:46:55;8.30;;;3.60;;
42906;SDS011;28552;51.146;6.576;2022-12-04T10:49:59;8.37;;;3.90;;
42906;SDS011;28552;51.146;6.576;2022-12-04T10:53:03;9.03;;;3.80;;
42906;SDS011;28552;51.146;6.576;2022-12-04T10:56:08;8.23;;;3.50;;
42906;SDS011;28552;51.146;6.576;2022-12-04T10:59:12;9.50;;;3.90;;
42906;SDS011;28552;51.146;6.576;2022-12-04T11:02:18;11.03;;;4.50;;
42906;SDS011;28552;51.146;6.576;2022-12-04T11:05:23;11.40;;;3.23;;
42906;SDS011;28552;51.146;6.576;2022-12-04T11:08:35;11.83;;;4.03;;
42906;SDS011;28552;51.146;6.576;2022-12-04T11:11:39;8.70;;;4.00;;
42906;SDS011;28552;51.146;6.576;2022-12-04T11:14:40;11.67;;;4.50;;
42906;SDS011;28552;51.146;6.576;2022-12-04T11:17:41;10.37;;;4.00;;
42906;SDS011;28552;51.146;6.576;2022-12-04T11:20:43;11.73;;;3.87;;
42906;SDS011;28552;51.146;6.576;2022-12-04T11:23:50;10.40;;;3.80;;
42906;SDS011;28552;51.146;6.576;2022-12-04T11:26:51;9.63;;;3.70;;
42906;SDS011;28552;51.146;6.576;2022-12-04T11:29:52;9.23;;;3.40;;
42906;SDS011;28552;51.146;6.576;2022-12-04T11:32:54;9.30;;;3.80;;
42906;SDS011;28552;51.146;6.576;2022-12-04T11:35:56;8.52;;;3.88;;
42906;SDS011;28552;51.146;6.576;2022-12-04T11:39:03;8.85;;;3.90;;
42906;SDS011;28552;51.146;6.576;2022-12-04T11:42:18;12.45;;;3.72;;
42906;SDS011;28552;51.146;6.576;2022-12-04T11:45:27;10.73;;;3.83;;
42906;SDS011;28552;51.146;6.576;2022-12-04T11:48:28;10.07;;;3.17;;
42906;SDS011;28552;51.146;6.576;2022-12-04T11:55:00;10.03;;;4.17;;
42906;SDS011;28552;51.146;6.576;2022-12-04T11:58:50;8.33;;;3.73;;
42906;SDS011;28552;51.146;6.576;2022-12-04T12:04:54;9.13;;;3.77;;
42906;SDS011;28552;51.146;6.576;2022-12-04T12:08:20;12.23;;;4.63;;
42906;SDS011;28552;51.146;6.576;2022-12-04T12:11:33;15.60;;;4.90;;
42906;SDS011;28552;51.146;6.576;2022-12-04T12:14:49;11.27;;;4.33;;
42906;SDS011;28552;51.146;6.576;2022-12-04T12:21:15;10.63;;;3.43;;
42906;SDS011;28552;51.146;6.576;2022-12-04T12:24:29;8.00;;;3.07;;
42906;SDS011;28552;51.146;6.576;2022-12-04T12:27:42;9.20;;;3.80;;
42906;SDS011;28552;51.146;6.576;2022-12-04T12:31:07;7.53;;;3.38;;
42906;SDS011;28552;51.146;6.576;2022-12-04T12:37:40;11.37;;;3.53;;
42906;SDS011;28552;51.146;6.576;2022-12-04T12:40:46;10.17;;;3.73;;
42906;SDS011;28552;51.146;6.576;2022-12-04T12:44:08;8.13;;;3.07;;
42906;SDS011;28552;51.146;6.576;2022-12-04T12:47:18;10.30;;;4.63;;
42906;SDS011;28552;51.146;6.576;2022-12-04T12:50:26;10.67;;;3.73;;
42906;SDS011;28552;51.146;6.576;2022-12-04T12:53:41;11.80;;;3.50;;
42906;SDS011;28552;51.146;6.576;2022-12-04T12:56:48;10.20;;;4.57;;
42906;SDS011;28552;51.146;6.576;2022-12-04T12:59:53;8.13;;;3.13;;
42906;SDS011;28552;51.146;6.576;2022-12-04T13:03:00;10.37;;;3.70;;
42906;SDS011;28552;51.146;6.576;2022-12-04T13:06:17;9.90;;;3.70;;
42906;SDS011;28552;51.146;6.576;2022-12-04T13:09:25;12.03;;;4.33;;
42906;SDS011;28552;51.146;6.576;2022-12-04T13:12:28;15.60;;;4.90;;
42906;SDS011;28552;51.146;6.576;2022-12-04T13:15:45;12.60;;;6.23;;
42906;SDS011;28552;51.146;6.576;2022-12-04T13:25:49;21.77;;;6.47;;
42906;SDS011;28552;51.146;6.576;2022-12-04T13:29:09;11.77;;;4.53;;
42906;SDS011;28552;51.146;6.576;2022-12-04T13:36:03;15.10;;;4.97;;
42906;SDS011;28552;51.146;6.576;2022-12-04T13:39:21;78.47;;;27.10;;
42906;SDS011;28552;51.146;6.576;2022-12-04T13:42:39;19.90;;;9.53;;
42906;SDS011;28552;51.146;6.576;2022-12-04T13:45:40;12.17;;;5.17;;
42906;SDS011;28552;51.146;6.576;2022-12-04T13:48:44;12.23;;;5.23;;
42906;SDS011;28552;51.146;6.576;2022-12-04T13:51:45;12.67;;;4.77;;
42906;SDS011;28552;51.146;6.576;2022-12-04T14:01:27;9.80;;;4.50;;
42906;SDS011;28552;51.146;6.576;2022-12-04T14:07:55;10.52;;;4.57;;
42906;SDS011;28552;51.146;6.576;2022-12-04T14:14:03;11.13;;;4.77;;
42906;SDS011;28552;51.146;6.576;2022-12-04T14:17:13;12.43;;;4.80;;
42906;SDS011;28552;51.146;6.576;2022-12-04T14:20:26;10.67;;;4.63;;
42906;SDS011;28552;51.146;6.576;2022-12-04T14:23:34;9.70;;;3.70;;
42906;SDS011;28552;51.146;6.576;2022-12-04T14:26:46;12.37;;;5.17;;
42906;SDS011;28552;51.146;6.576;2022-12-04T14:29:51;11.10;;;4.17;;
42906;SDS011;28552;51.146;6.576;2022-12-04T14:32:57;12.03;;;4.90;;
42906;SDS011;28552;51.146;6.576;2022-12-04T14:36:06;10.73;;;3.83;;
42906;SDS011;28552;51.146;6.576;2022-12-04T14:39:12;17.73;;;5.10;;
42906;SDS011;28552;51.146;6.576;2022-12-04T14:42:27;12.53;;;4.97;;
42906;SDS011;28552;51.146;6.576;2022-12-04T14:45:37;10.67;;;4.20;;
42906;SDS011;28552;51.146;6.576;2022-12-04T14:55:06;9.80;;;4.25;;
42906;SDS011;28552;51.146;6.576;2022-12-04T14:58:20;19.27;;;6.60;;
42906;SDS011;28552;51.146;6.576;2022-12-04T15:01:31;19.07;;;7.30;;
42906;SDS011;28552;51.146;6.576;2022-12-04T15:04:36;18.97;;;6.40;;
42906;SDS011;28552;51.146;6.576;2022-12-04T15:07:48;18.77;;;7.53;;
42906;SDS011;28552;51.146;6.576;2022-12-04T15:10:51;15.43;;;4.97;;
42906;SDS011;28552;51.146;6.576;2022-12-04T15:14:10;16.57;;;6.13;;
42906;SDS011;28552;51.146;6.576;2022-12-04T15:17:13;17.03;;;6.20;;
42906;SDS011;28552;51.146;6.576;2022-12-04T15:20:16;13.40;;;5.57;;
42906;SDS011;28552;51.146;6.576;2022-12-04T15:23:18;22.70;;;8.77;;
42906;SDS011;28552;51.146;6.576;2022-12-04T15:26:28;19.93;;;8.83;;
42906;SDS011;28552;51.146;6.576;2022-12-04T15:29:30;22.30;;;9.63;;
42906;SDS011;28552;51.146;6.576;2022-12-04T15:32:32;17.57;;;8.93;;
42906;SDS011;28552;51.146;6.576;2022-12-04T15:35:33;12.37;;;5.50;;
42906;SDS011;28552;51.146;6.576;2022-12-04T15:38:34;12.70;;;4.17;;
42906;SDS011;28552;51.146;6.576;2022-12-04T15:41:35;16.17;;;5.90;;
42906;SDS011;28552;51.146;6.576;2022-12-04T15:44:36;14.30;;;5.70;;
42906;SDS011;28552;51.146;6.576;2022-12-04T15:47:48;13.60;;;5.80;;
42906;SDS011;28552;51.146;6.576;2022-12-04T15:50:54;12.33;;;4.27;;
42906;SDS011;28552;51.146;6.576;2022-12-04T15:53:57;16.80;;;7.67;;
42906;SDS011;28552;51.146;6.576;2022-12-04T15:57:03;14.70;;;5.10;;
42906;SDS011;28552;51.146;6.576;2022-12-04T16:00:07;12.17;;;4.97;;
42906;SDS011;28552;51.146;6.576;2022-12-04T16:03:45;15.17;;;5.73;;
42906;SDS011;28552;51.146;6.576;2022-12-04T16:06:49;15.07;;;5.57;;
42906;SDS011;28552;51.146;6.576;2022-12-04T16:09:53;18.63;;;5.90;;
42906;SDS011;28552;51.146;6.576;2022-12-04T16:12:57;21.57;;;6.60;;
42906;SDS011;28552;51.146;6.576;2022-12-04T16:15:59;14.90;;;6.60;;
42906;SDS011;28552;51.146;6.576;2022-12-04T16:19:13;23.00;;;7.20;;
42906;SDS011;28552;51.146;6.576;2022-12-04T16:22:15;18.92;;;7.20;;
42906;SDS011;28552;51.146;6.576;2022-12-04T16:25:19;21.57;;;8.93;;
42906;SDS011;28552;51.146;6.576;2022-12-04T16:28:19;19.63;;;8.07;;
42906;SDS011;28552;51.146;6.576;2022-12-04T16:31:20;23.20;;;9.03;;
42906;SDS011;28552;51.146;6.576;2022-12-04T16:34:22;17.67;;;7.33;;
42906;SDS011;28552;51.146;6.576;2022-12-04T16:37:23;29.43;;;10.67;;
42906;SDS011;28552;51.146;6.576;2022-12-04T16:40:25;36.17;;;12.90;;
42906;SDS011;28552;51.146;6.576;2022-12-04T16:43:25;35.57;;;14.10;;
42906;SDS011;28552;51.146;6.576;2022-12-04T16:46:26;24.20;;;10.67;;
42906;SDS011;28552;51.146;6.576;2022-12-04T16:49:28;17.77;;;7.30;;
42906;SDS011;28552;51.146;6.576;2022-12-04T16:52:29;20.60;;;8.97;;
42906;SDS011;28552;51.146;6.576;2022-12-04T16:55:31;23.20;;;9.40;;
42906;SDS011;28552;51.146;6.576;2022-12-04T16:58:35;19.73;;;8.77;;
42906;SDS011;28552;51.146;6.576;2022-12-04T17:01:37;23.03;;;9.40;;
42906;SDS011;28552;51.146;6.576;2022-12-04T17:04:41;23.67;;;9.37;;
42906;SDS011;28552;51.146;6.576;2022-12-04T17:07:42;20.83;;;7.03;;
42906;SDS011;28552;51.146;6.576;2022-12-04T17:10:43;31.43;;;11.63;;
42906;SDS011;28552;51.146;6.576;2022-12-04T17:13:44;29.60;;;9.27;;
42906;SDS011;28552;51.146;6.576;2022-12-04T17:16:44;22.70;;;9.27;;
42906;SDS011;28552;51.146;6.576;2022-12-04T17:19:46;19.57;;;8.27;;
42906;SDS011;28552;51.146;6.576;2022-12-04T17:22:47;16.70;;;7.33;;
42906;SDS011;28552;51.146;6.576;2022-12-04T17:25:48;13.40;;;5.93;;
42906;SDS011;28552;51.146;6.576;2022-12-04T17:28:49;17.10;;;7.10;;
42906;SDS011;28552;51.146;6.576;2022-12-04T17:31:49;18.07;;;6.27;;
42906;SDS011;28552;51.146;6.576;2022-12-04T17:34:50;16.17;;;6.10;;
42906;SDS011;28552;51.146;6.576;2022-12-04T17:37:52;17.73;;;6.93;;
42906;SDS011;28552;51.146;6.576;2022-12-04T17:40:56;16.77;;;6.60;;
42906;SDS011;28552;51.146;6.576;2022-12-04T17:43:58;19.57;;;6.80;;
42906;SDS011;28552;51.146;6.576;2022-12-04T17:47:00;19.93;;;6.43;;
42906;SDS011;28552;51.146;6.576;2022-12-04T17:50:00;18.27;;;7.53;;
42906;SDS011;28552;51.146;6.576;2022-12-04T17:53:01;15.63;;;6.40;;
42906;SDS011;28552;51.146;6.576;2022-12-04T17:56:03;19.60;;;6.60;;
42906;SDS011;28552;51.146;6.576;2022-12-04T17:59:06;17.07;;;6.97;;
42906;SDS011;28552;51.146;6.576;2022-12-04T18:02:08;22.93;;;8.07;;
42906;SDS011;28552;51.146;6.576;2022-12-04T18:05:09;15.30;;;6.27;;
42906;SDS011;28552;51.146;6.576;2022-12-04T18:08:10;17.93;;;6.90;;
42906;SDS011;28552;51.146;6.576;2022-12-04T18:11:11;17.00;;;6.10;;
42906;SDS011;28552;51.146;6.576;2022-12-04T18:14:13;17.07;;;5.57;;
42906;SDS011;28552;51.146;6.576;2022-12-04T18:17:15;15.57;;;6.87;;
42906;SDS011;28552;51.146;6.576;2022-12-04T18:20:16;14.45;;;6.47;;
42906;SDS011;28552;51.146;6.576;2022-12-04T18:23:17;18.70;;;6.80;;
42906;SDS011;28552;51.146;6.576;2022-12-04T18:26:19;18.20;;;7.07;;
42906;SDS011;28552;51.146;6.576;2022-12-04T18:29:22;12.00;;;5.00;;
42906;SDS011;28552;51.146;6.576;2022-12-04T18:32:24;19.33;;;7.40;;
42906;SDS011;28552;51.146;6.576;2022-12-04T18:35:24;13.77;;;6.47;;
42906;SDS011;28552;51.146;6.576;2022-12-04T18:38:25;20.30;;;6.97;;
42906;SDS011;28552;51.146;6.576;2022-12-04T18:41:28;14.80;;;6.40;;
42906;SDS011;28552;51.146;6.576;2022-12-04T18:44:29;17.30;;;7.17;;
42906;SDS011;28552;51.146;6.576;2022-12-04T18:47:29;17.63;;;6.80;;
42906;SDS011;28552;51.146;6.576;2022-12-04T18:50:30;17.25;;;8.05;;
42906;SDS011;28552;51.146;6.576;2022-12-04T18:53:30;16.20;;;7.73;;
42906;SDS011;28552;51.146;6.576;2022-12-04T18:56:32;13.67;;;6.07;;
42906;SDS011;28552;51.146;6.576;2022-12-04T18:59:34;18.08;;;7.30;;
42906;SDS011;28552;51.146;6.576;2022-12-04T19:02:36;15.85;;;7.07;;
42906;SDS011;28552;51.146;6.576;2022-12-04T19:05:36;20.83;;;6.90;;
42906;SDS011;28552;51.146;6.576;2022-12-04T19:08:38;15.53;;;7.73;;
42906;SDS011;28552;51.146;6.576;2022-12-04T19:11:39;19.83;;;7.87;;
42906;SDS011;28552;51.146;6.576;2022-12-04T19:14:40;20.53;;;8.43;;
42906;SDS011;28552;51.146;6.576;2022-12-04T19:17:41;18.93;;;7.30;;
42906;SDS011;28552;51.146;6.576;2022-12-04T19:20:42;16.53;;;6.33;;
42906;SDS011;28552;51.146;6.576;2022-12-04T19:23:48;16.97;;;7.27;;
42906;SDS011;28552;51.146;6.576;2022-12-04T19:29:54;21.53;;;7.07;;
42906;SDS011;28552;51.146;6.576;2022-12-04T19:32:55;14.53;;;6.00;;
42906;SDS011;28552;51.146;6.576;2022-12-04T19:35:56;15.63;;;7.50;;
42906;SDS011;28552;51.146;6.576;2022-12-04T19:38:59;17.63;;;8.23;;
42906;SDS011;28552;51.146;6.576;2022-12-04T19:42:00;18.53;;;8.40;;
42906;SDS011;28552;51.146;6.576;2022-12-04T19:45:01;20.30;;;9.07;;